sensor_id;sensor_type;location;lat;lon;timestamp;temperature;humidity
53422;DHT22;39319;52.944;5.928;2023-06-10T00:02:17;20.50;79.60
53422;DHT22;39319;52.944;5.928;2023-06-10T00:04:43;20.50;79.70
53422;DHT22;39319;52.944;5.928;2023-06-10T00:07:08;20.50;79.70
53422;DHT22;39319;52.944;5.928;2023-06-10T00:09:38;20.50;79.60
53422;DHT22;39319;52.944;5.928;2023-06-10T00:12:04;20.40;79.90
53422;DHT22;39319;52.944;5.928;2023-06-10T00:14:30;20.40;79.90
53422;DHT22;39319;52.944;5.928;2023-06-10T00:16:56;20.40;79.90
53422;DHT22;39319;52.944;5.928;2023-06-10T00:19:25;20.30;80.00
53422;DHT22;39319;52.944;5.928;2023-06-10T00:21:56;20.30;80.20
53422;DHT22;39319;52.944;5.928;2023-06-10T00:24:22;20.30;80.20
53422;DHT22;39319;52.944;5.928;2023-06-10T00:26:48;20.20;80.30
53422;DHT22;39319;52.944;5.928;2023-06-10T00:29:13;20.30;80.30
53422;DHT22;39319;52.944;5.928;2023-06-10T00:31:40;20.20;80.30
53422;DHT22;39319;52.944;5.928;2023-06-10T00:34:07;20.20;79.90
53422;DHT22;39319;52.944;5.928;2023-06-10T00:36:33;20.30;79.70
53422;DHT22;39319;52.944;5.928;2023-06-10T00:38:58;20.20;80.00
53422;DHT22;39319;52.944;5.928;2023-06-10T00:41:25;20.20;80.00
53422;DHT22;39319;52.944;5.928;2023-06-10T00:43:53;20.20;79.90
53422;DHT22;39319;52.944;5.928;2023-06-10T00:46:20;20.20;80.10
53422;DHT22;39319;52.944;5.928;2023-06-10T00:48:46;20.20;80.10
53422;DHT22;39319;52.944;5.928;2023-06-10T00:51:12;20.10;80.20
53422;DHT22;39319;52.944;5.928;2023-06-10T00:53:40;20.00;80.20
53422;DHT22;39319;52.944;5.928;2023-06-10T00:56:07;20.10;80.40
53422;DHT22;39319;52.944;5.928;2023-06-10T00:58:33;20.00;80.30
53422;DHT22;39319;52.944;5.928;2023-06-10T01:00:59;20.00;80.10
53422;DHT22;39319;52.944;5.928;2023-06-10T01:03:25;20.00;80.20
53422;DHT22;39319;52.944;5.928;2023-06-10T01:05:59;20.00;80.40
53422;DHT22;39319;52.944;5.928;2023-06-10T01:08:44;19.90;80.20
53422;DHT22;39319;52.944;5.928;2023-06-10T01:11:23;19.90;80.30
53422;DHT22;39319;52.944;5.928;2023-06-10T01:13:51;19.90;80.40
53422;DHT22;39319;52.944;5.928;2023-06-10T01:16:18;19.90;80.50
53422;DHT22;39319;52.944;5.928;2023-06-10T01:18:45;19.90;80.50
53422;DHT22;39319;52.944;5.928;2023-06-10T01:21:21;19.90;80.50
53422;DHT22;39319;52.944;5.928;2023-06-10T01:23:51;19.80;80.50
53422;DHT22;39319;52.944;5.928;2023-06-10T01:26:17;19.80;80.60
53422;DHT22;39319;52.944;5.928;2023-06-10T01:28:53;19.80;80.60
53422;DHT22;39319;52.944;5.928;2023-06-10T01:34:00;19.80;80.70
53422;DHT22;39319;52.944;5.928;2023-06-10T01:36:27;19.70;80.40
53422;DHT22;39319;52.944;5.928;2023-06-10T01:38:53;19.70;80.50
53422;DHT22;39319;52.944;5.928;2023-06-10T01:41:21;19.70;80.20
53422;DHT22;39319;52.944;5.928;2023-06-10T01:43:47;19.70;80.20
53422;DHT22;39319;52.944;5.928;2023-06-10T01:46:14;19.70;80.10
53422;DHT22;39319;52.944;5.928;2023-06-10T01:48:42;19.70;80.10
53422;DHT22;39319;52.944;5.928;2023-06-10T01:51:07;19.70;80.60
53422;DHT22;39319;52.944;5.928;2023-06-10T01:53:36;19.60;80.40
53422;DHT22;39319;52.944;5.928;2023-06-10T01:56:01;19.70;80.30
53422;DHT22;39319;52.944;5.928;2023-06-10T01:58:27;19.60;80.40
53422;DHT22;39319;52.944;5.928;2023-06-10T02:00:53;19.50;80.60
53422;DHT22;39319;52.944;5.928;2023-06-10T02:03:18;19.50;80.30
53422;DHT22;39319;52.944;5.928;2023-06-10T02:05:44;19.50;80.30
53422;DHT22;39319;52.944;5.928;2023-06-10T02:08:10;19.50;80.20
53422;DHT22;39319;52.944;5.928;2023-06-10T02:10:36;19.50;80.50
53422;DHT22;39319;52.944;5.928;2023-06-10T02:13:01;19.40;80.60
53422;DHT22;39319;52.944;5.928;2023-06-10T02:15:27;19.30;80.70
53422;DHT22;39319;52.944;5.928;2023-06-10T02:17:53;19.40;81.00
53422;DHT22;39319;52.944;5.928;2023-06-10T02:20:22;19.30;81.00
53422;DHT22;39319;52.944;5.928;2023-06-10T02:22:47;19.30;80.90
53422;DHT22;39319;52.944;5.928;2023-06-10T02:25:13;19.20;81.20
53422;DHT22;39319;52.944;5.928;2023-06-10T02:27:39;19.20;81.30
53422;DHT22;39319;52.944;5.928;2023-06-10T02:30:05;19.20;81.00
53422;DHT22;39319;52.944;5.928;2023-06-10T02:32:31;19.10;81.10
53422;DHT22;39319;52.944;5.928;2023-06-10T02:34:56;19.10;81.00
53422;DHT22;39319;52.944;5.928;2023-06-10T02:37:23;19.10;81.10
53422;DHT22;39319;52.944;5.928;2023-06-10T02:39:51;19.10;81.10
53422;DHT22;39319;52.944;5.928;2023-06-10T02:42:19;19.00;81.10
53422;DHT22;39319;52.944;5.928;2023-06-10T02:44:45;19.10;80.70
53422;DHT22;39319;52.944;5.928;2023-06-10T02:47:10;19.00;80.80
53422;DHT22;39319;52.944;5.928;2023-06-10T02:49:36;19.00;80.90
53422;DHT22;39319;52.944;5.928;2023-06-10T02:52:02;19.00;80.90
53422;DHT22;39319;52.944;5.928;2023-06-10T02:54:28;18.90;80.80
53422;DHT22;39319;52.944;5.928;2023-06-10T02:56:54;18.90;80.60
53422;DHT22;39319;52.944;5.928;2023-06-10T02:59:22;18.90;80.70
53422;DHT22;39319;52.944;5.928;2023-06-10T03:01:48;18.90;80.60
53422;DHT22;39319;52.944;5.928;2023-06-10T03:04:13;18.90;80.50
53422;DHT22;39319;52.944;5.928;2023-06-10T03:06:40;18.90;80.60
53422;DHT22;39319;52.944;5.928;2023-06-10T03:09:13;18.90;80.80
53422;DHT22;39319;52.944;5.928;2023-06-10T03:11:39;18.80;80.70
53422;DHT22;39319;52.944;5.928;2023-06-10T03:14:04;18.80;80.40
53422;DHT22;39319;52.944;5.928;2023-06-10T03:16:30;18.70;80.50
53422;DHT22;39319;52.944;5.928;2023-06-10T03:18:56;18.80;80.30
53422;DHT22;39319;52.944;5.928;2023-06-10T03:21:22;18.80;80.70
53422;DHT22;39319;52.944;5.928;2023-06-10T03:23:48;18.70;80.60
53422;DHT22;39319;52.944;5.928;2023-06-10T03:26:14;18.60;80.60
53422;DHT22;39319;52.944;5.928;2023-06-10T03:28:41;18.60;80.70
53422;DHT22;39319;52.944;5.928;2023-06-10T03:31:07;18.60;80.70
53422;DHT22;39319;52.944;5.928;2023-06-10T03:33:32;18.60;80.90
53422;DHT22;39319;52.944;5.928;2023-06-10T03:35:58;18.60;81.00
53422;DHT22;39319;52.944;5.928;2023-06-10T03:38:24;18.60;81.20
53422;DHT22;39319;52.944;5.928;2023-06-10T03:40:50;18.50;81.10
53422;DHT22;39319;52.944;5.928;2023-06-10T03:43:16;18.60;81.30
53422;DHT22;39319;52.944;5.928;2023-06-10T03:45:41;18.60;81.40
53422;DHT22;39319;52.944;5.928;2023-06-10T03:48:07;18.60;81.20
53422;DHT22;39319;52.944;5.928;2023-06-10T03:50:36;18.50;81.40
53422;DHT22;39319;52.944;5.928;2023-06-10T03:53:02;18.50;81.50
53422;DHT22;39319;52.944;5.928;2023-06-10T03:55:28;18.40;81.60
53422;DHT22;39319;52.944;5.928;2023-06-10T03:57:53;18.40;82.10
53422;DHT22;39319;52.944;5.928;2023-06-10T04:00:19;18.50;81.90
53422;DHT22;39319;52.944;5.928;2023-06-10T04:02:47;18.40;81.90
53422;DHT22;39319;52.944;5.928;2023-06-10T04:05:16;18.40;82.20
53422;DHT22;39319;52.944;5.928;2023-06-10T04:07:42;18.40;82.10
53422;DHT22;39319;52.944;5.928;2023-06-10T04:10:09;18.40;82.00
53422;DHT22;39319;52.944;5.928;2023-06-10T04:12:36;18.40;82.20
53422;DHT22;39319;52.944;5.928;2023-06-10T04:15:03;18.40;82.50
53422;DHT22;39319;52.944;5.928;2023-06-10T04:17:30;18.40;82.70
53422;DHT22;39319;52.944;5.928;2023-06-10T04:19:56;18.40;82.80
53422;DHT22;39319;52.944;5.928;2023-06-10T04:22:21;18.40;82.90
53422;DHT22;39319;52.944;5.928;2023-06-10T04:24:48;18.30;82.90
53422;DHT22;39319;52.944;5.928;2023-06-10T04:27:14;18.30;83.00
53422;DHT22;39319;52.944;5.928;2023-06-10T04:29:40;18.30;83.40
53422;DHT22;39319;52.944;5.928;2023-06-10T04:32:06;18.30;83.50
53422;DHT22;39319;52.944;5.928;2023-06-10T04:34:37;18.30;83.80
53422;DHT22;39319;52.944;5.928;2023-06-10T04:37:05;18.30;83.70
53422;DHT22;39319;52.944;5.928;2023-06-10T04:39:36;18.30;83.80
53422;DHT22;39319;52.944;5.928;2023-06-10T04:42:02;18.30;83.90
53422;DHT22;39319;52.944;5.928;2023-06-10T04:44:28;18.30;84.10
53422;DHT22;39319;52.944;5.928;2023-06-10T04:46:54;18.30;84.30
53422;DHT22;39319;52.944;5.928;2023-06-10T04:49:21;18.30;84.50
53422;DHT22;39319;52.944;5.928;2023-06-10T04:51:46;18.30;84.40
53422;DHT22;39319;52.944;5.928;2023-06-10T04:54:15;18.40;84.60
53422;DHT22;39319;52.944;5.928;2023-06-10T04:56:43;18.50;84.70
53422;DHT22;39319;52.944;5.928;2023-06-10T04:59:08;18.40;84.80
53422;DHT22;39319;52.944;5.928;2023-06-10T05:01:34;18.40;84.80
53422;DHT22;39319;52.944;5.928;2023-06-10T05:04:00;18.40;85.10
53422;DHT22;39319;52.944;5.928;2023-06-10T05:06:25;18.40;85.00
53422;DHT22;39319;52.944;5.928;2023-06-10T05:08:51;18.50;85.30
53422;DHT22;39319;52.944;5.928;2023-06-10T05:11:17;18.50;85.40
53422;DHT22;39319;52.944;5.928;2023-06-10T05:13:43;18.50;85.40
53422;DHT22;39319;52.944;5.928;2023-06-10T05:16:09;18.50;85.50
53422;DHT22;39319;52.944;5.928;2023-06-10T05:18:37;18.60;85.50
53422;DHT22;39319;52.944;5.928;2023-06-10T05:21:03;18.60;85.50
53422;DHT22;39319;52.944;5.928;2023-06-10T05:23:29;18.60;85.50
53422;DHT22;39319;52.944;5.928;2023-06-10T05:25:55;18.60;85.50
53422;DHT22;39319;52.944;5.928;2023-06-10T05:28:20;18.60;85.70
53422;DHT22;39319;52.944;5.928;2023-06-10T05:30:46;18.60;85.80
53422;DHT22;39319;52.944;5.928;2023-06-10T05:33:12;18.60;86.00
53422;DHT22;39319;52.944;5.928;2023-06-10T05:35:38;18.70;86.10
53422;DHT22;39319;52.944;5.928;2023-06-10T05:38:03;18.70;86.20
53422;DHT22;39319;52.944;5.928;2023-06-10T05:40:29;18.70;86.40
53422;DHT22;39319;52.944;5.928;2023-06-10T05:42:55;18.70;86.70
53422;DHT22;39319;52.944;5.928;2023-06-10T05:45:20;18.80;86.70
53422;DHT22;39319;52.944;5.928;2023-06-10T05:47:46;18.80;86.60
53422;DHT22;39319;52.944;5.928;2023-06-10T05:50:12;18.80;87.10
53422;DHT22;39319;52.944;5.928;2023-06-10T05:52:37;18.80;87.30
53422;DHT22;39319;52.944;5.928;2023-06-10T05:55:06;18.90;87.20
53422;DHT22;39319;52.944;5.928;2023-06-10T05:57:32;18.90;87.00
53422;DHT22;39319;52.944;5.928;2023-06-10T05:59:58;18.90;87.00
53422;DHT22;39319;52.944;5.928;2023-06-10T06:02:23;18.90;87.20
53422;DHT22;39319;52.944;5.928;2023-06-10T06:04:49;19.10;87.10
53422;DHT22;39319;52.944;5.928;2023-06-10T06:07:15;19.10;87.30
53422;DHT22;39319;52.944;5.928;2023-06-10T06:09:41;19.10;87.50
53422;DHT22;39319;52.944;5.928;2023-06-10T06:12:08;19.20;87.40
53422;DHT22;39319;52.944;5.928;2023-06-10T06:14:39;19.20;87.40
53422;DHT22;39319;52.944;5.928;2023-06-10T06:17:06;19.20;87.50
53422;DHT22;39319;52.944;5.928;2023-06-10T06:19:32;19.20;87.50
53422;DHT22;39319;52.944;5.928;2023-06-10T06:21:58;19.30;87.60
53422;DHT22;39319;52.944;5.928;2023-06-10T06:24:23;19.30;87.70
53422;DHT22;39319;52.944;5.928;2023-06-10T06:26:49;19.40;87.90
53422;DHT22;39319;52.944;5.928;2023-06-10T06:29:15;19.40;87.60
53422;DHT22;39319;52.944;5.928;2023-06-10T06:31:40;19.50;87.70
53422;DHT22;39319;52.944;5.928;2023-06-10T06:34:06;19.50;87.90
53422;DHT22;39319;52.944;5.928;2023-06-10T06:36:32;19.60;87.80
53422;DHT22;39319;52.944;5.928;2023-06-10T06:38:57;19.60;87.80
53422;DHT22;39319;52.944;5.928;2023-06-10T06:41:27;19.70;88.40
53422;DHT22;39319;52.944;5.928;2023-06-10T06:43:54;19.70;88.50
53422;DHT22;39319;52.944;5.928;2023-06-10T06:46:20;19.80;88.70
53422;DHT22;39319;52.944;5.928;2023-06-10T06:48:47;19.80;88.40
53422;DHT22;39319;52.944;5.928;2023-06-10T06:51:12;19.90;88.40
53422;DHT22;39319;52.944;5.928;2023-06-10T06:53:39;20.00;88.40
53422;DHT22;39319;52.944;5.928;2023-06-10T06:56:10;20.00;87.80
53422;DHT22;39319;52.944;5.928;2023-06-10T06:58:36;20.10;87.50
53422;DHT22;39319;52.944;5.928;2023-06-10T07:01:02;20.10;87.50
53422;DHT22;39319;52.944;5.928;2023-06-10T07:03:27;20.10;87.60
53422;DHT22;39319;52.944;5.928;2023-06-10T07:05:53;20.30;87.80
53422;DHT22;39319;52.944;5.928;2023-06-10T07:08:19;20.20;87.10
53422;DHT22;39319;52.944;5.928;2023-06-10T07:10:44;20.30;86.90
53422;DHT22;39319;52.944;5.928;2023-06-10T07:13:10;20.40;86.60
53422;DHT22;39319;52.944;5.928;2023-06-10T07:15:36;20.50;86.50
53422;DHT22;39319;52.944;5.928;2023-06-10T07:18:01;20.50;85.60
53422;DHT22;39319;52.944;5.928;2023-06-10T07:20:27;20.60;85.80
53422;DHT22;39319;52.944;5.928;2023-06-10T07:22:53;20.70;85.60
53422;DHT22;39319;52.944;5.928;2023-06-10T07:25:19;20.80;85.60
53422;DHT22;39319;52.944;5.928;2023-06-10T07:27:44;20.90;85.20
53422;DHT22;39319;52.944;5.928;2023-06-10T07:30:13;21.10;85.70
53422;DHT22;39319;52.944;5.928;2023-06-10T07:32:38;21.20;85.50
53422;DHT22;39319;52.944;5.928;2023-06-10T07:35:08;21.30;84.80
53422;DHT22;39319;52.944;5.928;2023-06-10T07:37:34;21.30;85.10
53422;DHT22;39319;52.944;5.928;2023-06-10T07:39:59;21.50;84.90
53422;DHT22;39319;52.944;5.928;2023-06-10T07:42:25;21.60;84.40
53422;DHT22;39319;52.944;5.928;2023-06-10T07:44:51;21.70;84.90
53422;DHT22;39319;52.944;5.928;2023-06-10T07:47:16;21.80;84.60
53422;DHT22;39319;52.944;5.928;2023-06-10T07:49:42;21.90;83.50
53422;DHT22;39319;52.944;5.928;2023-06-10T07:52:08;22.00;84.20
53422;DHT22;39319;52.944;5.928;2023-06-10T07:54:34;22.10;84.50
53422;DHT22;39319;52.944;5.928;2023-06-10T07:56:59;22.20;83.70
53422;DHT22;39319;52.944;5.928;2023-06-10T07:59:25;22.30;82.40
53422;DHT22;39319;52.944;5.928;2023-06-10T08:01:52;22.40;82.30
53422;DHT22;39319;52.944;5.928;2023-06-10T08:04:18;22.40;80.80
53422;DHT22;39319;52.944;5.928;2023-06-10T08:06:44;22.50;79.70
53422;DHT22;39319;52.944;5.928;2023-06-10T08:09:10;22.60;79.80
53422;DHT22;39319;52.944;5.928;2023-06-10T08:11:36;22.80;79.00
53422;DHT22;39319;52.944;5.928;2023-06-10T08:14:01;22.90;77.90
53422;DHT22;39319;52.944;5.928;2023-06-10T08:16:27;23.00;77.40
53422;DHT22;39319;52.944;5.928;2023-06-10T08:18:53;23.10;76.20
53422;DHT22;39319;52.944;5.928;2023-06-10T08:21:19;23.20;76.50
53422;DHT22;39319;52.944;5.928;2023-06-10T08:23:45;23.20;75.40
53422;DHT22;39319;52.944;5.928;2023-06-10T08:26:10;23.40;76.20
53422;DHT22;39319;52.944;5.928;2023-06-10T08:28:36;23.40;73.40
53422;DHT22;39319;52.944;5.928;2023-06-10T08:31:02;23.60;74.30
53422;DHT22;39319;52.944;5.928;2023-06-10T08:33:28;23.60;74.40
53422;DHT22;39319;52.944;5.928;2023-06-10T08:35:53;23.70;74.50
53422;DHT22;39319;52.944;5.928;2023-06-10T08:38:19;23.90;75.70
53422;DHT22;39319;52.944;5.928;2023-06-10T08:40:45;24.00;75.10
53422;DHT22;39319;52.944;5.928;2023-06-10T08:43:17;24.10;74.40
53422;DHT22;39319;52.944;5.928;2023-06-10T08:45:49;24.30;73.90
53422;DHT22;39319;52.944;5.928;2023-06-10T08:48:17;24.40;72.70
53422;DHT22;39319;52.944;5.928;2023-06-10T08:50:44;24.60;73.80
53422;DHT22;39319;52.944;5.928;2023-06-10T08:53:14;24.80;74.00
53422;DHT22;39319;52.944;5.928;2023-06-10T08:55:45;24.90;72.70
53422;DHT22;39319;52.944;5.928;2023-06-10T08:58:13;24.90;71.40
53422;DHT22;39319;52.944;5.928;2023-06-10T09:00:39;25.10;72.10
53422;DHT22;39319;52.944;5.928;2023-06-10T09:03:05;25.20;70.80
53422;DHT22;39319;52.944;5.928;2023-06-10T09:05:34;25.30;70.90
53422;DHT22;39319;52.944;5.928;2023-06-10T09:08:02;25.40;71.90
53422;DHT22;39319;52.944;5.928;2023-06-10T09:10:28;25.50;71.70
53422;DHT22;39319;52.944;5.928;2023-06-10T09:12:54;25.60;70.50
53422;DHT22;39319;52.944;5.928;2023-06-10T09:15:21;25.80;70.90
53422;DHT22;39319;52.944;5.928;2023-06-10T09:17:48;25.80;70.20
53422;DHT22;39319;52.944;5.928;2023-06-10T09:20:14;26.00;70.10
53422;DHT22;39319;52.944;5.928;2023-06-10T09:22:43;26.10;70.10
53422;DHT22;39319;52.944;5.928;2023-06-10T09:25:10;26.20;70.10
53422;DHT22;39319;52.944;5.928;2023-06-10T09:27:48;26.30;68.70
53422;DHT22;39319;52.944;5.928;2023-06-10T09:30:34;26.50;68.10
53422;DHT22;39319;52.944;5.928;2023-06-10T09:33:02;26.60;67.60
53422;DHT22;39319;52.944;5.928;2023-06-10T09:35:30;26.70;67.10
53422;DHT22;39319;52.944;5.928;2023-06-10T09:38:00;26.90;66.50
53422;DHT22;39319;52.944;5.928;2023-06-10T09:40:29;26.90;67.40
53422;DHT22;39319;52.944;5.928;2023-06-10T09:42:59;27.10;67.10
53422;DHT22;39319;52.944;5.928;2023-06-10T09:45:32;27.20;66.40
53422;DHT22;39319;52.944;5.928;2023-06-10T09:47:58;27.30;64.10
53422;DHT22;39319;52.944;5.928;2023-06-10T09:50:24;27.40;65.00
53422;DHT22;39319;52.944;5.928;2023-06-10T09:52:50;27.60;63.90
53422;DHT22;39319;52.944;5.928;2023-06-10T09:55:20;27.60;64.00
53422;DHT22;39319;52.944;5.928;2023-06-10T09:57:49;27.80;64.60
53422;DHT22;39319;52.944;5.928;2023-06-10T10:00:22;27.90;65.80
53422;DHT22;39319;52.944;5.928;2023-06-10T10:02:49;28.10;65.60
53422;DHT22;39319;52.944;5.928;2023-06-10T10:05:21;28.20;64.40
53422;DHT22;39319;52.944;5.928;2023-06-10T10:07:47;28.30;65.20
53422;DHT22;39319;52.944;5.928;2023-06-10T10:10:14;28.40;65.10
53422;DHT22;39319;52.944;5.928;2023-06-10T10:12:41;28.50;64.50
53422;DHT22;39319;52.944;5.928;2023-06-10T10:15:09;28.60;63.00
53422;DHT22;39319;52.944;5.928;2023-06-10T10:17:49;28.80;61.10
53422;DHT22;39319;52.944;5.928;2023-06-10T10:20:22;28.90;61.70
53422;DHT22;39319;52.944;5.928;2023-06-10T10:22:51;29.00;60.70
53422;DHT22;39319;52.944;5.928;2023-06-10T10:25:32;29.10;60.80
53422;DHT22;39319;52.944;5.928;2023-06-10T10:28:12;29.20;61.40
53422;DHT22;39319;52.944;5.928;2023-06-10T10:30:51;29.40;60.90
53422;DHT22;39319;52.944;5.928;2023-06-10T10:33:33;29.50;61.00
53422;DHT22;39319;52.944;5.928;2023-06-10T10:36:02;29.70;58.80
53422;DHT22;39319;52.944;5.928;2023-06-10T10:38:28;29.80;58.90
53422;DHT22;39319;52.944;5.928;2023-06-10T10:40:55;29.90;57.00
53422;DHT22;39319;52.944;5.928;2023-06-10T10:43:25;29.90;56.10
53422;DHT22;39319;52.944;5.928;2023-06-10T10:46:01;30.00;56.30
53422;DHT22;39319;52.944;5.928;2023-06-10T10:48:38;30.10;54.20
53422;DHT22;39319;52.944;5.928;2023-06-10T10:51:04;30.20;54.60
53422;DHT22;39319;52.944;5.928;2023-06-10T10:53:30;30.30;55.50
53422;DHT22;39319;52.944;5.928;2023-06-10T10:59:06;30.60;54.10
53422;DHT22;39319;52.944;5.928;2023-06-10T11:01:42;30.70;52.80
53422;DHT22;39319;52.944;5.928;2023-06-10T11:04:11;30.80;53.20
53422;DHT22;39319;52.944;5.928;2023-06-10T11:06:37;30.90;52.40
53422;DHT22;39319;52.944;5.928;2023-06-10T11:09:27;31.00;53.00
53422;DHT22;39319;52.944;5.928;2023-06-10T11:11:56;31.20;51.30
53422;DHT22;39319;52.944;5.928;2023-06-10T11:14:30;31.30;52.60
53422;DHT22;39319;52.944;5.928;2023-06-10T11:16:59;31.40;51.50
53422;DHT22;39319;52.944;5.928;2023-06-10T11:19:40;31.50;49.70
53422;DHT22;39319;52.944;5.928;2023-06-10T11:22:16;31.50;49.30
53422;DHT22;39319;52.944;5.928;2023-06-10T11:24:47;31.60;51.00
53422;DHT22;39319;52.944;5.928;2023-06-10T11:27:24;31.70;50.90
53422;DHT22;39319;52.944;5.928;2023-06-10T11:32:32;32.00;52.50
53422;DHT22;39319;52.944;5.928;2023-06-10T11:34:58;32.10;49.10
53422;DHT22;39319;52.944;5.928;2023-06-10T11:37:24;32.10;50.60
53422;DHT22;39319;52.944;5.928;2023-06-10T11:39:54;32.10;50.80
53422;DHT22;39319;52.944;5.928;2023-06-10T11:42:20;32.10;50.30
53422;DHT22;39319;52.944;5.928;2023-06-10T11:44:50;32.20;50.30
53422;DHT22;39319;52.944;5.928;2023-06-10T11:47:17;32.30;48.00
53422;DHT22;39319;52.944;5.928;2023-06-10T11:49:43;32.30;47.20
53422;DHT22;39319;52.944;5.928;2023-06-10T11:52:09;32.30;47.90
53422;DHT22;39319;52.944;5.928;2023-06-10T11:54:36;32.40;48.70
53422;DHT22;39319;52.944;5.928;2023-06-10T11:57:02;32.40;47.70
53422;DHT22;39319;52.944;5.928;2023-06-10T11:59:33;32.50;47.80
53422;DHT22;39319;52.944;5.928;2023-06-10T12:01:59;32.60;47.40
53422;DHT22;39319;52.944;5.928;2023-06-10T12:04:25;32.70;47.40
53422;DHT22;39319;52.944;5.928;2023-06-10T12:06:53;32.70;46.20
53422;DHT22;39319;52.944;5.928;2023-06-10T12:09:25;32.70;45.80
53422;DHT22;39319;52.944;5.928;2023-06-10T12:12:01;32.80;44.80
53422;DHT22;39319;52.944;5.928;2023-06-10T12:14:49;32.80;45.00
53422;DHT22;39319;52.944;5.928;2023-06-10T12:17:15;32.80;44.90
53422;DHT22;39319;52.944;5.928;2023-06-10T12:19:41;32.80;46.70
53422;DHT22;39319;52.944;5.928;2023-06-10T12:22:07;32.90;46.80
53422;DHT22;39319;52.944;5.928;2023-06-10T12:24:32;32.90;45.30
53422;DHT22;39319;52.944;5.928;2023-06-10T12:26:58;33.00;46.50
53422;DHT22;39319;52.944;5.928;2023-06-10T12:29:24;33.00;46.60
53422;DHT22;39319;52.944;5.928;2023-06-10T12:32:00;33.10;46.80
53422;DHT22;39319;52.944;5.928;2023-06-10T12:34:40;33.10;46.20
53422;DHT22;39319;52.944;5.928;2023-06-10T12:37:10;33.10;45.70
53422;DHT22;39319;52.944;5.928;2023-06-10T12:39:39;33.20;45.80
53422;DHT22;39319;52.944;5.928;2023-06-10T12:42:05;33.20;45.80
53422;DHT22;39319;52.944;5.928;2023-06-10T12:44:38;33.20;46.20
53422;DHT22;39319;52.944;5.928;2023-06-10T12:47:11;33.30;46.20
53422;DHT22;39319;52.944;5.928;2023-06-10T12:49:39;33.20;45.80
53422;DHT22;39319;52.944;5.928;2023-06-10T12:52:05;33.20;46.50
53422;DHT22;39319;52.944;5.928;2023-06-10T12:54:31;33.20;46.30
53422;DHT22;39319;52.944;5.928;2023-06-10T12:56:57;33.30;46.10
53422;DHT22;39319;52.944;5.928;2023-06-10T12:59:23;33.30;45.90
53422;DHT22;39319;52.944;5.928;2023-06-10T13:01:53;33.30;45.50
53422;DHT22;39319;52.944;5.928;2023-06-10T13:04:21;33.30;44.70
53422;DHT22;39319;52.944;5.928;2023-06-10T13:06:47;33.40;45.30
53422;DHT22;39319;52.944;5.928;2023-06-10T13:09:14;33.40;45.40
53422;DHT22;39319;52.944;5.928;2023-06-10T13:11:41;33.50;45.50
53422;DHT22;39319;52.944;5.928;2023-06-10T13:14:08;33.50;44.50
53422;DHT22;39319;52.944;5.928;2023-06-10T13:16:34;33.60;44.30
53422;DHT22;39319;52.944;5.928;2023-06-10T13:19:00;33.50;43.10
53422;DHT22;39319;52.944;5.928;2023-06-10T13:21:28;33.50;43.60
53422;DHT22;39319;52.944;5.928;2023-06-10T13:23:53;33.60;44.10
53422;DHT22;39319;52.944;5.928;2023-06-10T13:26:19;33.50;44.40
53422;DHT22;39319;52.944;5.928;2023-06-10T13:28:45;33.50;45.00
53422;DHT22;39319;52.944;5.928;2023-06-10T13:31:11;33.60;44.30
53422;DHT22;39319;52.944;5.928;2023-06-10T13:33:37;33.60;45.40
53422;DHT22;39319;52.944;5.928;2023-06-10T13:36:04;33.70;44.60
53422;DHT22;39319;52.944;5.928;2023-06-10T13:38:30;33.70;44.60
53422;DHT22;39319;52.944;5.928;2023-06-10T13:40:56;33.60;45.30
53422;DHT22;39319;52.944;5.928;2023-06-10T13:43:22;33.60;45.90
53422;DHT22;39319;52.944;5.928;2023-06-10T13:45:47;33.60;46.10
53422;DHT22;39319;52.944;5.928;2023-06-10T13:48:13;33.70;45.80
53422;DHT22;39319;52.944;5.928;2023-06-10T13:50:39;33.70;46.20
53422;DHT22;39319;52.944;5.928;2023-06-10T13:53:04;33.70;46.00
53422;DHT22;39319;52.944;5.928;2023-06-10T13:55:30;33.70;46.30
53422;DHT22;39319;52.944;5.928;2023-06-10T13:57:56;33.70;46.10
53422;DHT22;39319;52.944;5.928;2023-06-10T14:00:21;33.70;45.60
53422;DHT22;39319;52.944;5.928;2023-06-10T14:02:47;33.70;45.70
53422;DHT22;39319;52.944;5.928;2023-06-10T14:05:13;33.70;46.10
53422;DHT22;39319;52.944;5.928;2023-06-10T14:07:38;33.70;45.90
53422;DHT22;39319;52.944;5.928;2023-06-10T14:10:06;33.70;46.00
53422;DHT22;39319;52.944;5.928;2023-06-10T14:12:34;33.70;46.90
53422;DHT22;39319;52.944;5.928;2023-06-10T14:15:00;33.70;46.30
53422;DHT22;39319;52.944;5.928;2023-06-10T14:17:26;33.70;46.60
53422;DHT22;39319;52.944;5.928;2023-06-10T14:19:52;33.80;46.20
53422;DHT22;39319;52.944;5.928;2023-06-10T14:22:17;33.80;46.40
53422;DHT22;39319;52.944;5.928;2023-06-10T14:24:43;33.90;45.60
53422;DHT22;39319;52.944;5.928;2023-06-10T14:27:09;33.80;46.70
53422;DHT22;39319;52.944;5.928;2023-06-10T14:29:37;33.80;45.50
53422;DHT22;39319;52.944;5.928;2023-06-10T14:32:03;33.80;46.60
53422;DHT22;39319;52.944;5.928;2023-06-10T14:34:28;33.90;45.40
53422;DHT22;39319;52.944;5.928;2023-06-10T14:37:01;33.90;45.80
53422;DHT22;39319;52.944;5.928;2023-06-10T14:39:32;33.90;45.90
53422;DHT22;39319;52.944;5.928;2023-06-10T14:41:57;33.70;47.00
53422;DHT22;39319;52.944;5.928;2023-06-10T14:44:23;33.80;47.20
53422;DHT22;39319;52.944;5.928;2023-06-10T14:46:49;33.90;47.10
53422;DHT22;39319;52.944;5.928;2023-06-10T14:49:14;33.90;47.50
53422;DHT22;39319;52.944;5.928;2023-06-10T14:51:42;33.90;48.10
53422;DHT22;39319;52.944;5.928;2023-06-10T14:54:08;33.90;47.90
53422;DHT22;39319;52.944;5.928;2023-06-10T14:56:34;34.00;47.80
53422;DHT22;39319;52.944;5.928;2023-06-10T14:58:59;34.00;47.30
53422;DHT22;39319;52.944;5.928;2023-06-10T15:01:25;34.00;48.00
53422;DHT22;39319;52.944;5.928;2023-06-10T15:03:51;34.00;47.70
53422;DHT22;39319;52.944;5.928;2023-06-10T15:06:16;34.00;47.00
53422;DHT22;39319;52.944;5.928;2023-06-10T15:08:46;34.10;47.40
53422;DHT22;39319;52.944;5.928;2023-06-10T15:11:14;34.10;47.70
53422;DHT22;39319;52.944;5.928;2023-06-10T15:13:40;34.10;48.10
53422;DHT22;39319;52.944;5.928;2023-06-10T15:16:10;34.10;47.90
53422;DHT22;39319;52.944;5.928;2023-06-10T15:18:36;34.00;47.80
53422;DHT22;39319;52.944;5.928;2023-06-10T15:21:02;34.00;48.00
53422;DHT22;39319;52.944;5.928;2023-06-10T15:23:30;33.90;47.80
53422;DHT22;39319;52.944;5.928;2023-06-10T15:25:56;33.80;47.80
53422;DHT22;39319;52.944;5.928;2023-06-10T15:28:21;33.70;48.30
53422;DHT22;39319;52.944;5.928;2023-06-10T15:30:47;33.70;48.30
53422;DHT22;39319;52.944;5.928;2023-06-10T15:33:13;33.50;48.70
53422;DHT22;39319;52.944;5.928;2023-06-10T15:35:39;33.40;48.90
53422;DHT22;39319;52.944;5.928;2023-06-10T15:38:04;33.30;48.80
53422;DHT22;39319;52.944;5.928;2023-06-10T15:40:30;33.20;48.90